createdAt,value
2019-03-06T00:00:46.809Z,75.64
2019-03-06T00:03:15.491Z,76.20
2019-03-06T00:05:44.166Z,76.40
2019-03-06T00:08:12.865Z,77.47
2019-03-06T00:10:41.514Z,77.86
2019-03-06T00:13:10.175Z,77.13
2019-03-06T00:15:38.841Z,76.97
2019-03-06T00:18:07.598Z,77.40
2019-03-06T00:20:36.281Z,77.40
2019-03-06T00:23:07.818Z,77.24
2019-03-06T00:25:36.482Z,76.94
2019-03-06T00:28:05.257Z,77.45
2019-03-06T00:30:33.933Z,76.95
2019-03-06T00:33:03.637Z,77.19
2019-03-06T00:35:33.874Z,76.90
2019-03-06T00:38:02.541Z,75.57
2019-03-06T00:40:33.263Z,75.38
2019-03-06T00:43:01.958Z,74.82
2019-03-06T00:45:30.630Z,77.23
2019-03-06T00:47:59.301Z,76.24
2019-03-06T00:50:27.973Z,77.19
2019-03-06T00:52:56.704Z,77.96
2019-03-06T00:55:25.381Z,78.36
2019-03-06T00:57:54.093Z,78.92
2019-03-06T01:00:25.437Z,79.40
2019-03-06T01:02:54.099Z,79.49
2019-03-06T01:05:23.095Z,79.80
2019-03-06T01:07:51.998Z,79.55
2019-03-06T01:10:20.736Z,79.32
2019-03-06T01:12:49.397Z,80.04
2019-03-06T01:15:18.943Z,80.36
2019-03-06T01:17:47.913Z,80.36
2019-03-06T01:20:16.996Z,79.73
2019-03-06T01:22:45.700Z,79.55
2019-03-06T01:25:18.965Z,79.75
2019-03-06T01:27:47.669Z,79.40
2019-03-06T01:30:19.524Z,80.24
2019-03-06T01:32:49.957Z,80.82
2019-03-06T01:35:36.364Z,81.12
2019-03-06T01:38:22.305Z,80.98
2019-03-06T01:40:55.598Z,80.36
2019-03-06T01:43:26.005Z,78.91
2019-03-06T01:45:54.667Z,78.77
2019-03-06T01:48:23.357Z,79.38
2019-03-06T01:50:52.027Z,79.84
2019-03-06T01:53:20.786Z,79.71
2019-03-06T01:55:49.587Z,79.82
2019-03-06T01:58:18.367Z,80.21
2019-03-06T02:00:47.031Z,81.07
2019-03-06T02:03:15.705Z,81.05
2019-03-06T02:05:44.409Z,81.27
2019-03-06T02:08:13.689Z,81.37
2019-03-06T02:10:42.395Z,81.64
2019-03-06T02:13:11.370Z,81.75
2019-03-06T02:15:40.041Z,81.36
2019-03-06T02:18:08.739Z,81.18
2019-03-06T02:20:37.612Z,81.34
2019-03-06T02:23:06.278Z,81.54
2019-03-06T02:25:34.948Z,81.29
2019-03-06T02:28:03.835Z,81.57
2019-03-06T02:30:32.525Z,81.86
2019-03-06T02:33:01.294Z,81.62
2019-03-06T02:35:29.990Z,81.77
2019-03-06T02:37:58.670Z,82.10
2019-03-06T02:40:27.370Z,82.00
2019-03-06T02:42:56.047Z,81.96
2019-03-06T02:45:24.696Z,82.24
2019-03-06T02:47:53.378Z,82.83
2019-03-06T02:50:22.516Z,82.13
2019-03-06T02:52:51.964Z,82.27
2019-03-06T02:55:22.179Z,82.30
2019-03-06T02:58:04.510Z,82.72
2019-03-06T03:00:35.031Z,82.78
2019-03-06T03:03:09.351Z,82.96
2019-03-06T03:05:39.644Z,83.05
2019-03-06T03:08:08.674Z,82.52
2019-03-06T03:10:37.347Z,81.31
2019-03-06T03:13:06.187Z,81.79
2019-03-06T03:15:34.853Z,81.32
2019-03-06T03:18:03.511Z,81.27
2019-03-06T03:20:32.256Z,81.09
2019-03-06T03:23:00.913Z,81.27
2019-03-06T03:25:29.761Z,80.63
2019-03-06T03:27:58.446Z,80.61
2019-03-06T03:30:27.158Z,81.64
2019-03-06T03:32:55.959Z,81.33
2019-03-06T03:35:24.739Z,81.41
2019-03-06T03:37:53.633Z,81.19
2019-03-06T03:40:22.308Z,81.33
2019-03-06T03:42:51.368Z,80.79
2019-03-06T03:45:20.047Z,80.94
2019-03-06T03:47:48.751Z,81.23
2019-03-06T03:50:17.414Z,81.06
2019-03-06T03:52:46.090Z,81.18
2019-03-06T03:55:18.249Z,81.65
2019-03-06T03:57:46.928Z,81.92
2019-03-06T04:00:17.528Z,81.13
2019-03-06T04:02:46.536Z,81.21
2019-03-06T04:05:15.195Z,80.78
2019-03-06T04:07:44.372Z,80.95
2019-03-06T04:10:14.185Z,81.02
2019-03-06T04:12:42.866Z,80.88
2019-03-06T04:15:18.829Z,80.70
2019-03-06T04:17:47.515Z,80.45
2019-03-06T04:20:16.967Z,79.71
2019-03-06T04:22:45.689Z,79.97
2019-03-06T04:25:14.478Z,79.84
2019-03-06T04:27:43.144Z,79.68
2019-03-06T04:30:16.190Z,80.15
2019-03-06T04:32:44.851Z,80.71
2019-03-06T04:35:13.629Z,80.07
2019-03-06T04:37:42.304Z,79.91
2019-03-06T04:40:13.925Z,80.08
2019-03-06T04:42:42.600Z,80.14
2019-03-06T04:45:18.566Z,80.84
2019-03-06T04:47:47.241Z,80.43
2019-03-06T04:50:16.107Z,81.07
2019-03-06T04:52:44.945Z,80.75
2019-03-06T04:55:14.826Z,80.09
2019-03-06T04:57:43.794Z,79.04
2019-03-06T05:00:17.629Z,79.56
2019-03-06T05:02:46.352Z,79.29
2019-03-06T05:05:15.072Z,78.75
2019-03-06T05:07:43.760Z,79.32
2019-03-06T05:10:13.232Z,78.50
2019-03-06T05:12:42.325Z,78.20
2019-03-06T05:15:13.363Z,78.06
2019-03-06T05:17:43.592Z,78.26
2019-03-06T05:20:12.375Z,78.69
2019-03-06T05:22:41.004Z,79.16
2019-03-06T05:25:09.666Z,79.10
2019-03-06T05:27:38.369Z,79.31
2019-03-06T05:30:10.805Z,78.39
2019-03-06T05:32:39.475Z,77.95
2019-03-06T05:35:14.245Z,76.80
2019-03-06T05:37:46.148Z,76.04
2019-03-06T05:40:14.818Z,75.08
2019-03-06T05:42:43.479Z,74.32
2019-03-06T05:45:12.186Z,73.72
2019-03-06T05:47:40.938Z,73.68
2019-03-06T05:50:09.833Z,73.09
2019-03-06T05:52:38.496Z,73.67
2019-03-06T05:55:08.173Z,74.41
2019-03-06T05:57:36.859Z,74.61
2019-03-06T06:00:14.677Z,73.83
2019-03-06T06:02:43.415Z,73.22
2019-03-06T06:05:14.011Z,72.57
2019-03-06T06:07:43.256Z,72.10
2019-03-06T06:10:14.187Z,71.88
2019-03-06T06:12:42.895Z,72.35
2019-03-06T06:15:13.428Z,71.67
2019-03-06T06:17:42.132Z,71.17
2019-03-06T06:20:12.560Z,71.26
2019-03-06T06:22:58.875Z,71.44
2019-03-06T06:25:28.605Z,71.49
2019-03-06T06:27:57.270Z,70.87
2019-03-06T06:30:26.135Z,70.73
2019-03-06T06:32:54.810Z,70.35
2019-03-06T06:35:23.683Z,71.22
2019-03-06T06:37:52.377Z,70.90
2019-03-06T06:40:21.157Z,70.34
2019-03-06T06:42:50.272Z,69.81
2019-03-06T06:45:19.202Z,68.03
2019-03-06T06:48:10.105Z,68.21
2019-03-06T06:50:44.471Z,68.36
2019-03-06T06:53:27.915Z,69.46
2019-03-06T06:56:12.097Z,70.00
2019-03-06T06:59:00.088Z,70.29
2019-03-06T07:01:33.350Z,70.27
2019-03-06T07:04:18.517Z,70.20
2019-03-06T07:07:07.080Z,69.59
2019-03-06T07:09:46.463Z,68.40
2019-03-06T07:12:19.726Z,67.94
2019-03-06T07:14:52.909Z,66.57
2019-03-06T07:17:23.137Z,65.99
2019-03-06T07:19:53.470Z,65.97
2019-03-06T07:22:29.509Z,64.92
2019-03-06T07:24:59.798Z,64.63
2019-03-06T07:27:30.181Z,62.21
2019-03-06T07:30:06.322Z,60.19
2019-03-06T07:32:36.618Z,56.73
2019-03-06T07:35:59.579Z,55.53
2019-03-06T07:38:28.663Z,54.81
2019-03-06T07:41:01.699Z,52.17
2019-03-06T07:43:48.333Z,49.29
2019-03-06T07:46:36.862Z,48.39
2019-03-06T07:49:19.462Z,47.78
2019-03-06T07:51:52.454Z,45.74
2019-03-06T07:54:29.036Z,45.83
2019-03-06T07:57:10.961Z,46.01
2019-03-06T07:59:40.019Z,46.94
2019-03-06T08:02:21.022Z,48.24
2019-03-06T08:04:54.333Z,47.66
2019-03-06T08:07:26.275Z,46.14
2019-03-06T08:09:55.304Z,45.35
2019-03-06T08:12:25.640Z,47.05
2019-03-06T08:15:07.784Z,46.51
2019-03-06T08:17:41.074Z,48.38
2019-03-06T08:20:27.954Z,49.23
2019-03-06T08:23:04.273Z,50.89
2019-03-06T08:25:44.591Z,52.11
2019-03-06T08:28:14.223Z,53.24
2019-03-06T08:30:44.903Z,52.34
2019-03-06T08:33:18.191Z,50.03
2019-03-06T08:35:44.036Z,50.34
2019-03-06T08:38:12.884Z,51.35
2019-03-06T08:40:44.729Z,50.70
2019-03-06T08:43:13.431Z,50.65
2019-03-06T08:45:52.856Z,52.35
2019-03-06T08:48:38.241Z,49.19
2019-03-06T08:51:11.325Z,45.57
2019-03-06T08:56:29.425Z,38.75
2019-03-06T08:58:59.685Z,35.40
2019-03-06T09:01:45.973Z,33.62
2019-03-06T09:04:22.649Z,33.51
2019-03-06T09:07:08.976Z,32.38
2019-03-06T09:09:45.574Z,32.62
2019-03-06T09:12:22.059Z,33.90
2019-03-06T09:15:10.713Z,37.45
2019-03-06T09:17:47.574Z,35.65
2019-03-06T09:20:38.265Z,34.24
2019-03-06T09:23:23.431Z,35.10
2019-03-06T09:26:08.288Z,36.39
2019-03-06T09:29:00.988Z,34.00
2019-03-06T09:31:26.709Z,32.74
2019-03-06T09:33:57.049Z,29.65
2019-03-06T09:36:45.507Z,32.98
2019-03-06T09:39:18.236Z,37.54
2019-03-06T09:41:54.360Z,41.49
2019-03-06T09:44:41.085Z,35.95
2019-03-06T09:47:27.395Z,31.84
2019-03-06T09:50:12.668Z,29.48
2019-03-06T09:52:52.196Z,28.22
2019-03-06T09:55:40.585Z,29.26
2019-03-06T09:58:27.242Z,26.53
2019-03-06T10:01:03.282Z,24.87
2019-03-06T10:03:43.021Z,28.68
2019-03-06T10:06:22.499Z,28.42
2019-03-06T10:09:08.826Z,26.17
2019-03-06T10:11:48.279Z,22.74
2019-03-06T10:14:24.350Z,22.34
2019-03-06T10:17:00.421Z,21.62
2019-03-06T10:19:30.762Z,22.96
2019-03-06T10:21:59.471Z,24.95
2019-03-06T10:24:28.196Z,25.84
2019-03-06T10:26:56.938Z,27.14
2019-03-06T10:29:25.919Z,24.93
2019-03-06T10:31:54.646Z,23.04
2019-03-06T10:34:23.685Z,24.64
2019-03-06T10:36:52.470Z,26.64
2019-03-06T10:39:21.157Z,29.61
2019-03-06T10:41:50.032Z,27.08
2019-03-06T10:44:18.736Z,27.02
2019-03-06T10:46:47.396Z,24.57
2019-03-06T10:49:16.106Z,21.63
2019-03-06T10:51:44.814Z,19.94
2019-03-06T10:54:13.495Z,19.12
2019-03-06T10:56:42.221Z,20.85
2019-03-06T10:59:11.043Z,19.87
2019-03-06T11:01:39.873Z,19.74
2019-03-06T11:04:25.460Z,18.79
2019-03-06T11:06:54.421Z,18.13
2019-03-06T11:09:24.567Z,18.23
2019-03-06T11:11:53.408Z,19.47
2019-03-06T11:14:22.135Z,19.35
2019-03-06T11:16:50.880Z,20.52
2019-03-06T11:19:20.024Z,19.92
2019-03-06T11:21:49.113Z,19.40
2019-03-06T11:24:17.852Z,21.46
2019-03-06T11:26:46.665Z,18.95
2019-03-06T11:29:15.643Z,20.21
2019-03-06T11:31:44.451Z,19.85
2019-03-06T11:34:13.283Z,21.10
2019-03-06T11:36:44.529Z,20.45
2019-03-06T11:39:13.730Z,20.37
2019-03-06T11:41:42.704Z,18.99
2019-03-06T11:44:11.728Z,19.97
2019-03-06T11:46:40.419Z,19.19
2019-03-06T11:49:09.106Z,19.34
2019-03-06T11:51:38.105Z,19.21
2019-03-06T11:54:09.714Z,21.01
2019-03-06T11:56:38.836Z,21.39
2019-03-06T11:59:07.678Z,19.78
2019-03-06T12:01:44.757Z,19.21
2019-03-06T12:04:07.993Z,17.83
2019-03-06T12:06:36.816Z,18.78
2019-03-06T12:09:08.467Z,18.45
2019-03-06T12:11:37.130Z,16.27
2019-03-06T12:14:06.114Z,14.96
2019-03-06T12:16:41.552Z,14.02
2019-03-06T12:19:05.559Z,13.77
2019-03-06T12:21:34.263Z,13.67
2019-03-06T12:24:02.991Z,14.06
2019-03-06T12:26:31.708Z,14.75
2019-03-06T12:29:00.747Z,16.04
2019-03-06T12:31:29.563Z,16.49
2019-03-06T12:33:58.249Z,15.51
2019-03-06T12:36:26.945Z,13.73
2019-03-06T12:38:57.769Z,13.74
2019-03-06T12:41:26.128Z,12.97
2019-03-06T12:43:54.914Z,14.77
2019-03-06T12:46:24.401Z,15.02
2019-03-06T12:48:56.229Z,14.09
2019-03-06T12:51:24.952Z,14.24
2019-03-06T12:53:53.853Z,13.25
2019-03-06T12:56:22.751Z,13.57
2019-03-06T12:58:51.485Z,15.65
2019-03-06T13:01:20.667Z,16.93
2019-03-06T13:03:49.401Z,15.59
2019-03-06T13:07:38.705Z,16.44
2019-03-06T13:08:50.686Z,15.56
2019-03-06T13:11:19.594Z,15.70
2019-03-06T13:13:48.591Z,15.09
2019-03-06T13:16:17.482Z,14.46
2019-03-06T13:18:46.264Z,13.58
2019-03-06T13:21:15.598Z,13.32
2019-03-06T13:23:44.710Z,13.72
2019-03-06T13:26:13.398Z,13.44
2019-03-06T13:28:42.225Z,12.92
2019-03-06T13:31:10.937Z,12.98
2019-03-06T13:33:44.133Z,13.30
2019-03-06T13:36:13.112Z,13.76
2019-03-06T13:38:41.908Z,15.39
2019-03-06T13:41:10.666Z,17.45
2019-03-06T13:43:39.446Z,19.10
2019-03-06T13:46:08.245Z,17.89
2019-03-06T13:48:36.958Z,15.91
2019-03-06T13:51:05.972Z,16.35
2019-03-06T13:53:34.653Z,16.35
2019-03-06T13:56:03.851Z,15.77
2019-03-06T13:58:32.801Z,15.62
2019-03-06T14:01:02.118Z,15.82
2019-03-06T14:03:30.981Z,14.67
2019-03-06T14:06:00.185Z,14.83
2019-03-06T14:08:29.176Z,14.58
2019-03-06T14:10:57.920Z,17.15
2019-03-06T14:13:26.838Z,18.81
2019-03-06T14:15:55.527Z,19.01
2019-03-06T14:18:24.321Z,19.77
2019-03-06T14:20:53.327Z,18.62
2019-03-06T14:23:22.206Z,17.71
2019-03-06T14:25:51.102Z,17.64
2019-03-06T14:28:19.877Z,18.16
2019-03-06T14:30:48.639Z,19.36
2019-03-06T14:33:17.302Z,18.17
2019-03-06T14:35:46.350Z,19.41
2019-03-06T14:38:15.062Z,17.43
2019-03-06T14:40:44.442Z,18.08
2019-03-06T14:43:14.695Z,17.25
2019-03-06T14:45:43.609Z,17.61
2019-03-06T14:48:12.387Z,17.49
2019-03-06T14:50:41.441Z,17.27
2019-03-06T14:53:10.144Z,17.98
2019-03-06T14:55:38.819Z,17.30
2019-03-06T14:58:07.505Z,16.95
2019-03-06T15:00:36.321Z,19.87
2019-03-06T15:03:05.075Z,22.13
2019-03-06T15:05:33.719Z,24.30
2019-03-06T15:08:02.608Z,24.54
2019-03-06T15:10:31.530Z,24.90
2019-03-06T15:13:00.362Z,24.96
2019-03-06T15:15:29.201Z,26.59
2019-03-06T15:17:58.027Z,25.98
2019-03-06T15:20:28.730Z,27.87
2019-03-06T15:22:58.597Z,28.17
2019-03-06T15:25:31.164Z,28.25
2019-03-06T15:27:59.952Z,28.13
2019-03-06T15:30:28.660Z,29.92
2019-03-06T15:32:57.406Z,28.13
2019-03-06T15:35:26.837Z,28.45
2019-03-06T15:37:55.615Z,30.14
2019-03-06T15:40:33.504Z,29.94
2019-03-06T15:43:02.264Z,30.18
2019-03-06T15:45:34.070Z,29.50
2019-03-06T15:48:02.819Z,30.00
2019-03-06T15:50:31.686Z,30.57
2019-03-06T15:53:00.360Z,30.08
2019-03-06T15:55:29.752Z,30.65
2019-03-06T15:57:58.548Z,31.12
2019-03-06T16:00:45.885Z,31.36
2019-03-06T16:03:10.244Z,31.93
2019-03-06T16:05:39.923Z,32.22
2019-03-06T16:08:10.014Z,32.24
2019-03-06T16:10:40.243Z,32.91
2019-03-06T16:13:09.200Z,33.43
2019-03-06T16:15:37.882Z,33.71
2019-03-06T16:18:08.183Z,34.13
2019-03-06T16:20:37.725Z,34.11
2019-03-06T16:23:07.360Z,34.47
2019-03-06T16:25:38.996Z,34.77
2019-03-06T16:28:06.888Z,34.62
2019-03-06T16:30:35.575Z,34.97
2019-03-06T16:33:04.369Z,36.33
2019-03-06T16:35:33.155Z,37.06
2019-03-06T16:38:01.849Z,37.11
2019-03-06T16:40:31.107Z,36.84
2019-03-06T16:43:00.996Z,36.61
2019-03-06T16:45:30.557Z,35.77
2019-03-06T16:48:00.508Z,36.06
2019-03-06T16:50:30.862Z,36.15
2019-03-06T16:52:59.743Z,36.19
2019-03-06T16:55:28.614Z,36.30
2019-03-06T16:57:57.582Z,36.45
2019-03-06T17:00:34.537Z,36.57
2019-03-06T17:03:06.185Z,36.45
2019-03-06T17:05:35.355Z,36.97
2019-03-06T17:08:08.752Z,36.65
2019-03-06T17:10:38.790Z,36.17
2019-03-06T17:13:07.964Z,35.83
2019-03-06T17:15:36.839Z,35.85
2019-03-06T17:18:06.568Z,38.14
2019-03-06T17:20:36.891Z,35.79
2019-03-06T17:23:06.768Z,35.54
2019-03-06T17:25:35.798Z,35.34
2019-03-06T17:28:05.268Z,35.91
2019-03-06T17:30:35.410Z,36.39
2019-03-06T17:33:09.548Z,37.70
2019-03-06T17:35:39.077Z,35.77
2019-03-06T17:38:10.245Z,36.20
2019-03-06T17:40:39.265Z,35.80
2019-03-06T17:43:09.854Z,36.35
2019-03-06T17:45:39.413Z,35.77
2019-03-06T17:48:09.651Z,35.81
2019-03-06T17:50:38.445Z,35.53
2019-03-06T17:53:07.537Z,36.50
2019-03-06T17:55:36.316Z,36.64
2019-03-06T17:58:05.641Z,36.75
2019-03-06T18:00:42.258Z,36.85
2019-03-06T18:03:12.749Z,36.83
2019-03-06T18:05:41.919Z,36.91
2019-03-06T18:08:11.601Z,37.21
2019-03-06T18:10:40.377Z,38.16
2019-03-06T18:13:09.433Z,37.51
2019-03-06T18:15:38.116Z,37.77
2019-03-06T18:18:06.783Z,37.61
2019-03-06T18:20:35.527Z,38.25
2019-03-06T18:23:04.213Z,38.78
2019-03-06T18:25:32.879Z,38.62
2019-03-06T18:28:01.580Z,38.62
2019-03-06T18:30:30.237Z,38.97
2019-03-06T18:32:59.003Z,39.70
2019-03-06T18:35:27.668Z,39.19
2019-03-06T18:37:56.737Z,40.80
2019-03-06T18:40:28.579Z,39.17
2019-03-06T18:42:57.284Z,39.33
2019-03-06T18:45:26.091Z,40.52
2019-03-06T18:47:54.817Z,41.05
2019-03-06T18:50:24.683Z,40.40
2019-03-06T18:52:53.474Z,39.10
2019-03-06T18:55:22.543Z,39.09
2019-03-06T18:57:51.211Z,38.93
2019-03-06T19:00:21.799Z,39.06
2019-03-06T19:02:50.762Z,39.04
2019-03-06T19:05:21.044Z,39.88
2019-03-06T19:07:50.620Z,40.54
2019-03-06T19:10:20.290Z,41.13
2019-03-06T19:12:49.205Z,41.65
2019-03-06T19:15:25.628Z,41.83
2019-03-06T19:17:54.333Z,42.30
2019-03-06T19:20:23.901Z,41.32
2019-03-06T19:22:53.264Z,41.61
2019-03-06T19:25:22.132Z,41.78
2019-03-06T19:27:51.170Z,41.94
2019-03-06T19:30:23.665Z,41.85
2019-03-06T19:32:52.467Z,41.81
2019-03-06T19:35:28.726Z,41.96
2019-03-06T19:37:57.445Z,42.19
2019-03-06T19:40:26.599Z,41.92
2019-03-06T19:42:55.271Z,41.94
2019-03-06T19:45:25.305Z,43.37
2019-03-06T19:47:53.951Z,42.45
2019-03-06T19:50:26.404Z,43.45
2019-03-06T19:52:55.836Z,43.52
2019-03-06T19:55:24.902Z,43.04
2019-03-06T19:57:59.072Z,43.21
2019-03-06T20:00:29.787Z,43.69
2019-03-06T20:02:59.580Z,44.43
2019-03-06T20:05:36.984Z,44.93
2019-03-06T20:08:13.525Z,45.37
2019-03-06T20:10:42.186Z,46.55
2019-03-06T20:13:12.416Z,46.36
2019-03-06T20:15:41.776Z,47.57
2019-03-06T20:18:11.015Z,47.08
2019-03-06T20:20:39.964Z,47.06
2019-03-06T20:23:09.065Z,46.13
2019-03-06T20:25:38.186Z,45.73
2019-03-06T20:28:07.343Z,45.66
2019-03-06T20:30:36.319Z,44.68
2019-03-06T20:33:05.999Z,44.45
2019-03-06T20:35:34.981Z,44.25
2019-03-06T20:38:03.660Z,44.54
2019-03-06T20:40:32.341Z,44.68
2019-03-06T20:43:01.010Z,44.07
2019-03-06T20:45:29.751Z,43.36
2019-03-06T20:47:58.593Z,43.16
2019-03-06T20:50:27.461Z,43.16
2019-03-06T20:52:56.714Z,43.14
2019-03-06T20:55:25.434Z,42.78
2019-03-06T20:57:54.366Z,43.17
2019-03-06T21:00:25.995Z,43.25
2019-03-06T21:02:54.659Z,42.80
2019-03-06T21:05:23.590Z,43.56
2019-03-06T21:07:52.296Z,43.58
2019-03-06T21:10:21.354Z,44.01
2019-03-06T21:12:50.018Z,44.37
2019-03-06T21:15:20.829Z,44.82
2019-03-06T21:17:49.574Z,44.32
2019-03-06T21:20:22.767Z,44.21
2019-03-06T21:22:51.448Z,44.80
2019-03-06T21:25:21.384Z,45.22
2019-03-06T21:27:50.519Z,44.71
2019-03-06T21:30:23.105Z,45.60
2019-03-06T21:32:51.833Z,47.31
2019-03-06T21:35:20.751Z,46.13
2019-03-06T21:37:49.481Z,46.32
2019-03-06T21:40:18.656Z,46.52
2019-03-06T21:42:47.893Z,46.76
2019-03-06T21:45:16.912Z,46.76
2019-03-06T21:47:45.549Z,46.98
2019-03-06T21:50:16.666Z,46.81
2019-03-06T21:52:45.337Z,46.45
2019-03-06T21:55:15.454Z,46.68
2019-03-06T21:57:44.411Z,46.69
2019-03-06T22:00:18.779Z,46.21
2019-03-06T22:02:47.443Z,47.44
2019-03-06T22:05:16.451Z,47.74
2019-03-06T22:07:45.130Z,47.58
2019-03-06T22:10:16.298Z,47.54
2019-03-06T22:12:45.260Z,47.56
2019-03-06T22:15:19.711Z,48.00
2019-03-06T22:17:48.423Z,48.28
2019-03-06T22:20:17.759Z,48.50
2019-03-06T22:22:46.433Z,48.74
2019-03-06T22:25:17.786Z,48.96
2019-03-06T22:27:46.488Z,48.94
2019-03-06T22:30:17.651Z,49.79
2019-03-06T22:32:46.324Z,49.61
2019-03-06T22:35:15.109Z,50.38
2019-03-06T22:37:43.856Z,50.63
2019-03-06T22:40:15.563Z,51.13
2019-03-06T22:42:44.249Z,51.44
2019-03-06T22:45:18.233Z,51.81
2019-03-06T22:47:48.506Z,50.58
2019-03-06T22:50:20.230Z,51.13
2019-03-06T22:52:49.523Z,50.63
2019-03-06T22:55:19.596Z,51.25
2019-03-06T22:57:48.317Z,51.60
2019-03-06T23:00:33.956Z,51.83
2019-03-06T23:03:02.720Z,52.07
2019-03-06T23:05:34.590Z,52.42
2019-03-06T23:08:03.411Z,52.76
2019-03-06T23:10:32.102Z,52.76
2019-03-06T23:13:00.759Z,52.66
2019-03-06T23:15:29.459Z,53.04
2019-03-06T23:17:58.345Z,53.41
2019-03-06T23:20:27.035Z,52.80
2019-03-06T23:22:55.751Z,52.54
2019-03-06T23:25:24.457Z,53.15
2019-03-06T23:27:53.250Z,52.95
2019-03-06T23:30:21.926Z,53.20
2019-03-06T23:32:50.798Z,53.28
2019-03-06T23:35:19.470Z,53.08
2019-03-06T23:37:48.250Z,52.61
2019-03-06T23:40:16.917Z,53.29
2019-03-06T23:42:47.788Z,53.94
2019-03-06T23:45:15.985Z,54.25
2019-03-06T23:47:44.662Z,53.83
2019-03-06T23:50:14.043Z,54.30
2019-03-06T23:53:02.189Z,54.07
2019-03-06T23:55:32.168Z,54.16
2019-03-06T23:58:00.864Z,54.18
